Time;durP1;ratioP1;P1;durP2;ratioP2;P2;SDS_P1;SDS_P2;PMS_P1;PMS_P2;Temp;Humidity;BMP_temperature;BMP_pressure;BME280_temperature;BME280_humidity;BME280_pressure;Samples;Min_cycle;Max_cycle;Signal;HPM_P1;HPM_P2
2022/02/04 00:05:11;;;;;;;10.03;6.00;;;5.80;99.90;;;;;;5050181;28;20056;-88
2022/02/04 00:08:06;;;;;;;14.80;7.80;;;5.70;99.90;;;;;;5072052;28;20029;-89
2022/02/04 00:21:50;;;;;;;13.53;6.63;;;5.70;99.90;;;;;;5067562;28;20075;-89
2022/02/04 00:24:19;;;;;;;15.93;8.90;;;5.70;99.90;;;;;;5064757;28;20056;-90
2022/02/04 00:26:51;;;;;;;12.03;6.93;;;5.70;99.90;;;;;;5068304;28;20045;-87
2022/02/04 00:29:23;;;;;;;11.43;6.47;;;5.70;99.90;;;;;;5066920;28;20049;-88
2022/02/04 00:31:53;;;;;;;14.80;7.27;;;5.70;99.90;;;;;;5060392;28;20075;-88
2022/02/04 00:34:21;;;;;;;16.23;7.10;;;5.70;99.90;;;;;;5060140;28;20068;-88
2022/02/04 00:37:04;;;;;;;37.40;17.70;;;5.70;99.90;;;;;;5062256;28;20053;-81
2022/02/04 00:39:38;;;;;;;16.30;9.73;;;5.70;99.90;;;;;;5068691;28;20044;-84
2022/02/04 00:42:08;;;;;;;21.57;8.47;;;5.60;99.90;;;;;;5061921;28;20049;-87
2022/02/04 00:44:37;;;;;;;15.20;7.80;;;5.70;99.90;;;;;;5055905;28;20057;-79
2022/02/04 00:47:13;;;;;;;15.40;8.13;;;5.60;99.90;;;;;;5090409;28;20056;-85
2022/02/04 00:49:53;;;;;;;20.50;10.87;;;5.60;99.90;;;;;;5045172;28;20063;-81
2022/02/04 00:52:31;;;;;;;45.37;26.03;;;5.60;99.90;;;;;;5063281;28;20069;-86
2022/02/04 00:55:19;;;;;;;17.17;9.33;;;5.60;99.90;;;;;;5064605;28;20088;-86
2022/02/04 00:57:51;;;;;;;18.77;8.40;;;5.60;99.90;;;;;;5037621;28;20088;-81
2022/02/04 01:28:07;;;;;;;16.53;8.73;;;5.70;99.90;;;;;;5050571;28;20056;-84
2022/02/04 01:30:35;;;;;;;19.27;8.73;;;5.70;99.90;;;;;;5054287;28;20115;-83
2022/02/04 01:33:03;;;;;;;19.93;9.27;;;5.70;99.90;;;;;;5053745;28;20044;-83
2022/02/04 01:35:29;;;;;;;20.87;10.07;;;5.70;99.90;;;;;;5053015;28;20112;-81
2022/02/04 01:37:56;;;;;;;20.30;11.33;;;5.70;99.90;;;;;;5067642;28;20060;-81
2022/02/04 01:40:22;;;;;;;17.23;10.13;;;5.70;99.90;;;;;;5053194;28;20064;-84
2022/02/04 01:42:48;;;;;;;19.70;10.40;;;5.70;99.90;;;;;;5054237;28;20045;-83
2022/02/04 01:45:15;;;;;;;19.97;10.77;;;5.80;99.90;;;;;;5053321;28;21237;-83
2022/02/04 01:47:55;;;;;;;19.20;9.30;;;5.70;99.90;;;;;;5064674;28;20044;-83
2022/02/04 01:50:22;;;;;;;26.80;11.40;;;5.70;99.90;;;;;;5053201;28;20084;-81
2022/02/04 01:52:48;;;;;;;24.83;10.60;;;5.70;99.90;;;;;;5061569;28;20057;-82
2022/02/04 01:55:16;;;;;;;19.17;10.47;;;5.80;99.90;;;;;;5080116;28;20048;-81
2022/02/04 01:57:42;;;;;;;22.60;11.60;;;5.80;99.90;;;;;;5094079;28;20040;-82
2022/02/04 02:00:10;;;;;;;21.83;10.87;;;5.70;99.90;;;;;;5093453;28;20044;-84
2022/02/04 02:02:36;;;;;;;24.03;10.27;;;5.80;99.90;;;;;;5092366;28;20048;-84
2022/02/04 02:05:03;;;;;;;16.13;9.97;;;5.80;99.90;;;;;;5093945;28;20070;-85
2022/02/04 02:07:32;;;;;;;22.00;10.07;;;5.80;99.90;;;;;;5074614;28;20052;-82
2022/02/04 02:10:01;;;;;;;19.70;10.80;;;5.80;99.90;;;;;;5066118;28;20055;-81
2022/02/04 02:12:33;;;;;;;22.73;9.47;;;5.70;99.90;;;;;;5053836;28;20083;-82
2022/02/04 02:15:17;;;;;;;19.23;10.10;;;5.80;99.90;;;;;;5042123;28;20136;-81
2022/02/04 02:34:50;;;;;;;23.77;11.63;;;5.80;99.90;;;;;;5053045;28;20064;-83
2022/02/04 02:43:08;;;;;;;25.23;12.27;;;5.70;99.90;;;;;;5046071;28;20124;-83
2022/02/04 02:45:54;;;;;;;22.37;10.53;;;5.70;99.90;;;;;;5060583;28;20495;-78
2022/02/04 02:48:38;;;;;;;26.67;12.10;;;5.70;99.90;;;;;;5065096;28;22047;-82
2022/02/04 02:51:33;;;;;;;25.47;11.33;;;5.70;99.90;;;;;;5073648;28;20068;-84
2022/02/04 02:54:13;;;;;;;29.03;10.63;;;5.70;99.90;;;;;;5073278;28;20086;-84
2022/02/04 02:57:05;;;;;;;23.63;10.93;;;5.70;99.90;;;;;;5050309;28;20100;-82
2022/02/04 02:59:33;;;;;;;28.37;12.73;;;5.70;99.90;;;;;;5077438;28;20048;-84
2022/02/04 03:01:59;;;;;;;22.17;10.73;;;5.70;99.90;;;;;;5087987;28;20052;-82
2022/02/04 03:04:26;;;;;;;25.13;11.93;;;5.70;99.90;;;;;;5054253;28;20052;-83
2022/02/04 03:06:52;;;;;;;26.97;10.83;;;5.70;99.90;;;;;;5051642;28;20040;-82
2022/02/04 03:09:18;;;;;;;25.03;10.97;;;5.70;99.90;;;;;;5052246;28;20057;-83
2022/02/04 03:11:44;;;;;;;19.63;9.43;;;5.70;99.90;;;;;;5051749;28;20510;-82
2022/02/04 03:14:11;;;;;;;25.20;10.80;;;5.70;99.90;;;;;;5054153;28;20087;-82
2022/02/04 03:16:38;;;;;;;25.60;10.40;;;5.70;99.90;;;;;;5068817;28;20551;-83
2022/02/04 03:19:06;;;;;;;24.43;11.63;;;5.70;99.90;;;;;;5071782;28;20049;-83
2022/02/04 03:21:36;;;;;;;22.80;10.10;;;5.70;99.90;;;;;;5059022;28;20052;-88
2022/02/04 03:24:07;;;;;;;132.33;69.63;;;5.60;99.90;;;;;;5070543;28;20110;-84
2022/02/04 03:26:42;;;;;;;44.87;23.57;;;5.60;99.90;;;;;;5084582;28;20109;-83
2022/02/04 03:29:09;;;;;;;22.50;12.03;;;5.60;99.90;;;;;;5051968;28;20060;-84
2022/02/04 03:31:40;;;;;;;27.63;12.37;;;5.60;99.90;;;;;;5051689;28;20049;-83
2022/02/04 03:34:06;;;;;;;29.75;13.10;;;5.50;99.90;;;;;;5052138;28;20403;-84
2022/02/04 03:36:33;;;;;;;22.00;10.87;;;5.50;99.90;;;;;;5052281;28;20395;-84
2022/02/04 03:39:02;;;;;;;24.37;11.27;;;5.50;99.90;;;;;;5054378;28;20053;-84
2022/02/04 03:41:28;;;;;;;26.00;14.33;;;5.50;99.90;;;;;;5052244;28;20060;-84
2022/02/04 03:43:55;;;;;;;30.37;12.97;;;5.40;99.90;;;;;;5052629;28;20160;-85
2022/02/04 03:46:25;;;;;;;26.30;12.10;;;5.40;99.90;;;;;;5052757;28;20049;-85
2022/02/04 03:48:51;;;;;;;23.70;11.00;;;5.40;99.90;;;;;;5052533;28;20052;-84
2022/02/04 03:51:20;;;;;;;28.73;13.73;;;5.40;99.90;;;;;;5054754;28;20114;-86
2022/02/04 03:53:47;;;;;;;25.33;11.87;;;5.40;99.90;;;;;;5053007;28;20154;-86
2022/02/04 03:56:13;;;;;;;27.50;11.83;;;5.50;99.90;;;;;;5052773;28;20061;-86
2022/02/04 03:58:43;;;;;;;27.50;10.43;;;5.40;99.90;;;;;;5054304;28;20399;-85
2022/02/04 04:01:09;;;;;;;21.57;11.67;;;5.40;99.90;;;;;;5054830;28;20060;-85
2022/02/04 04:03:37;;;;;;;30.17;12.13;;;5.40;99.90;;;;;;5070423;28;20102;-85
2022/02/04 04:06:05;;;;;;;23.17;11.33;;;5.40;99.90;;;;;;5059939;28;20087;-86
2022/02/04 04:08:31;;;;;;;20.20;10.53;;;5.30;99.90;;;;;;5051597;28;20053;-86
2022/02/04 04:11:01;;;;;;;30.17;12.03;;;5.30;99.90;;;;;;5051642;28;20057;-85
2022/02/04 04:13:30;;;;;;;30.63;14.27;;;5.30;99.90;;;;;;5066207;28;20055;-85
2022/02/04 04:15:56;;;;;;;23.83;11.50;;;5.30;99.90;;;;;;5068516;28;20079;-85
2022/02/04 04:18:22;;;;;;;21.20;11.40;;;5.30;99.90;;;;;;5088537;28;20057;-86
2022/02/04 04:20:49;;;;;;;26.50;11.90;;;5.30;99.90;;;;;;5080566;28;20090;-83
2022/02/04 04:23:15;;;;;;;28.57;13.97;;;5.30;99.90;;;;;;5089331;28;21591;-85
2022/02/04 04:25:42;;;;;;;27.03;12.87;;;5.30;99.90;;;;;;5092625;28;20052;-83
2022/02/04 04:28:08;;;;;;;23.37;11.07;;;5.30;99.90;;;;;;5090175;28;20056;-84
2022/02/04 04:30:34;;;;;;;25.00;12.10;;;5.30;99.90;;;;;;5089449;28;20044;-83
2022/02/04 04:33:01;;;;;;;24.23;12.77;;;5.30;99.90;;;;;;5096186;28;20090;-85
2022/02/04 04:35:28;;;;;;;25.43;12.73;;;5.30;99.90;;;;;;5115139;28;20032;-84
2022/02/04 04:38:02;;;;;;;29.57;12.77;;;5.30;99.90;;;;;;5109936;28;20060;-85
2022/02/04 04:43:24;;;;;;;22.70;11.40;;;5.30;99.90;;;;;;5097469;28;20059;-86
2022/02/04 05:29:50;;;;;;;24.50;12.03;;;5.20;99.90;;;;;;5040392;28;20088;-87
2022/02/04 05:32:17;;;;;;;22.90;10.53;;;5.20;99.90;;;;;;5055304;28;20045;-86
2022/02/04 05:34:45;;;;;;;24.70;12.70;;;5.20;99.90;;;;;;5055333;28;20060;-86
2022/02/04 05:37:13;;;;;;;22.23;11.10;;;5.20;99.90;;;;;;5056373;28;20126;-86
2022/02/04 05:39:48;;;;;;;20.00;9.37;;;5.20;99.90;;;;;;5061631;28;20052;-86
2022/02/04 05:42:20;;;;;;;22.93;10.90;;;5.20;99.90;;;;;;5075849;28;20062;-85
2022/02/04 05:44:54;;;;;;;25.83;12.43;;;5.20;99.90;;;;;;5095236;28;20051;-86
2022/02/04 05:47:20;;;;;;;21.40;10.53;;;5.30;99.90;;;;;;5095036;28;20063;-85
2022/02/04 05:50:01;;;;;;;31.20;12.73;;;5.20;99.90;;;;;;5065160;28;20048;-86
2022/02/04 05:52:31;;;;;;;25.40;11.65;;;5.20;99.90;;;;;;5070453;28;20065;-85
2022/02/04 05:55:06;;;;;;;26.47;10.20;;;5.20;99.90;;;;;;5060449;28;20124;-86
2022/02/04 05:57:57;;;;;;;25.37;10.27;;;5.20;99.90;;;;;;5055238;28;20063;-85
2022/02/04 06:00:31;;;;;;;21.67;10.63;;;5.10;99.90;;;;;;5062418;28;20056;-84
2022/02/04 06:03:16;;;;;;;26.67;11.50;;;5.20;99.90;;;;;;5074624;28;20048;-84
2022/02/04 06:06:02;;;;;;;21.07;11.10;;;5.10;99.90;;;;;;5074881;28;20064;-83
2022/02/04 06:08:46;;;;;;;24.80;10.97;;;5.10;99.90;;;;;;5054369;28;20458;-84
2022/02/04 06:11:31;;;;;;;21.97;8.63;;;5.10;99.90;;;;;;5053913;28;20061;-84
2022/02/04 06:14:25;;;;;;;29.50;11.37;;;5.10;99.90;;;;;;5053947;28;20080;-83
2022/02/04 06:22:22;;;;;;;23.23;11.87;;;5.10;99.90;;;;;;5059914;28;20129;-84
2022/02/04 06:24:49;;;;;;;28.63;11.10;;;5.10;99.90;;;;;;5055107;28;20376;-85
2022/02/04 06:27:16;;;;;;;30.43;11.67;;;5.10;99.90;;;;;;5052555;28;20140;-84
2022/02/04 06:29:44;;;;;;;19.37;11.07;;;5.10;99.90;;;;;;5058644;28;20041;-84
2022/02/04 06:32:10;;;;;;;25.63;11.23;;;5.10;99.90;;;;;;5059483;28;20053;-83
2022/02/04 06:34:37;;;;;;;19.97;11.20;;;5.10;99.90;;;;;;5070693;28;20517;-83
2022/02/04 06:37:04;;;;;;;22.53;10.80;;;5.10;99.90;;;;;;5059877;28;20053;-83
2022/02/04 06:39:30;;;;;;;21.17;10.63;;;5.10;99.90;;;;;;5058702;28;20751;-84
2022/02/04 06:41:56;;;;;;;22.20;11.97;;;5.10;99.90;;;;;;5060962;28;20522;-83
2022/02/04 06:44:23;;;;;;;24.67;10.77;;;5.10;99.90;;;;;;5070293;28;20147;-85
2022/02/04 06:46:50;;;;;;;18.87;10.20;;;5.10;99.90;;;;;;5083316;28;20083;-84
2022/02/04 06:49:16;;;;;;;24.00;10.43;;;5.10;99.90;;;;;;5086372;28;20060;-85
2022/02/04 06:51:47;;;;;;;25.90;10.80;;;5.10;99.90;;;;;;5073474;28;20923;-85
2022/02/04 06:54:13;;;;;;;28.58;10.57;;;5.10;99.90;;;;;;5049914;28;20092;-83
2022/02/04 06:56:39;;;;;;;23.93;12.23;;;5.10;99.90;;;;;;5041941;28;20057;-85
2022/02/04 06:59:06;;;;;;;23.10;9.43;;;5.10;99.90;;;;;;5041728;28;20054;-84
2022/02/04 07:01:34;;;;;;;25.77;10.57;;;5.10;99.90;;;;;;5040189;28;20068;-83
2022/02/04 07:04:04;;;;;;;17.37;9.60;;;5.10;99.90;;;;;;5051498;28;20055;-83
2022/02/04 07:06:31;;;;;;;21.00;10.47;;;5.10;99.90;;;;;;5053627;28;20045;-84
2022/02/04 07:09:13;;;;;;;22.50;12.30;;;5.10;99.90;;;;;;5054791;28;20045;-83
2022/02/04 07:12:03;;;;;;;23.60;11.30;;;5.10;99.90;;;;;;5054176;28;20375;-84
2022/02/04 07:14:38;;;;;;;17.60;9.93;;;5.20;99.90;;;;;;5057157;28;20079;-84
2022/02/04 07:17:16;;;;;;;25.40;11.47;;;5.20;99.90;;;;;;5053756;28;20065;-83
2022/02/04 07:19:46;;;;;;;17.63;12.07;;;5.20;99.90;;;;;;5065327;28;20398;-83
2022/02/04 07:22:12;;;;;;;25.97;10.67;;;5.20;99.90;;;;;;5073789;28;20048;-86
2022/02/04 07:24:38;;;;;;;24.60;11.27;;;5.20;99.90;;;;;;5073766;28;20417;-92
2022/02/04 07:27:05;;;;;;;23.30;11.33;;;5.20;99.90;;;;;;5072000;28;20059;-81
2022/02/04 07:29:32;;;;;;;24.53;10.70;;;5.20;99.90;;;;;;5052266;28;20061;-81
2022/02/04 07:32:02;;;;;;;24.27;10.67;;;5.20;99.90;;;;;;5069798;28;20044;-84
2022/02/04 07:34:41;;;;;;;20.00;9.57;;;5.20;99.90;;;;;;5056297;28;20053;-87
2022/02/04 07:42:36;;;;;;;22.83;10.40;;;5.20;99.90;;;;;;5054167;28;20055;-84
2022/02/04 07:45:03;;;;;;;20.97;9.20;;;5.30;99.90;;;;;;5069590;28;20072;-88
2022/02/04 07:47:30;;;;;;;24.60;11.73;;;5.30;99.90;;;;;;5054787;28;20049;-88
2022/02/04 07:49:56;;;;;;;18.93;10.73;;;5.30;99.90;;;;;;5056226;28;20045;-86
2022/02/04 07:52:23;;;;;;;17.80;9.70;;;5.30;99.90;;;;;;5057541;28;20178;-87
2022/02/04 07:54:49;;;;;;;20.33;10.23;;;5.40;99.90;;;;;;5054160;28;20510;-86
2022/02/04 07:57:15;;;;;;;22.13;9.23;;;5.40;99.90;;;;;;5066419;28;20052;-85
2022/02/04 07:59:43;;;;;;;19.67;9.90;;;5.50;99.90;;;;;;5088738;28;20040;-86
2022/02/04 08:02:10;;;;;;;19.40;9.97;;;5.50;99.90;;;;;;5074117;28;20063;-87
2022/02/04 08:04:37;;;;;;;23.80;12.60;;;5.50;99.90;;;;;;5083861;28;20055;-85
2022/02/04 08:07:09;;;;;;;16.90;9.37;;;5.60;99.90;;;;;;5091644;28;20059;-84
2022/02/04 08:09:46;;;;;;;21.13;10.93;;;5.50;99.90;;;;;;5099032;28;20044;-87
2022/02/04 08:12:36;;;;;;;19.27;9.50;;;5.60;99.90;;;;;;5108626;28;20040;-85
2022/02/04 08:15:13;;;;;;;21.00;10.93;;;5.60;99.90;;;;;;5068903;28;20061;-83
2022/02/04 08:18:13;;;;;;;20.43;10.00;;;5.70;99.90;;;;;;5061220;28;20064;-83
2022/02/04 08:21:10;;;;;;;16.80;9.70;;;5.70;99.90;;;;;;5069711;28;20053;-84
2022/02/04 08:26:49;;;;;;;15.83;7.80;;;5.80;99.90;;;;;;5052363;28;20056;-86
2022/02/04 08:29:36;;;;;;;16.63;9.47;;;5.70;99.90;;;;;;5049922;28;20057;-80
2022/02/04 08:35:07;;;;;;;15.00;8.02;;;5.80;99.90;;;;;;5058253;28;20056;-80
2022/02/04 08:48:56;;;;;;;13.97;7.50;;;5.90;99.90;;;;;;5093390;28;20054;-79
2022/02/04 08:51:38;;;;;;;12.53;7.40;;;6.00;99.90;;;;;;5093603;28;20044;-82
2022/02/04 08:54:13;;;;;;;;;;;6.00;99.90;;;;;;5101140;28;20169;-85
2022/02/04 08:56:44;;;;;;;12.10;6.83;;;6.00;99.90;;;;;;5094586;28;19919;-86
2022/02/04 08:59:18;;;;;;;12.68;8.15;;;6.10;99.90;;;;;;5094567;28;20147;-84
2022/02/04 09:01:55;;;;;;;11.37;6.53;;;6.10;99.90;;;;;;5080711;28;21725;-79
2022/02/04 09:04:30;;;;;;;12.80;7.50;;;6.20;99.90;;;;;;5076011;28;20044;-83
2022/02/04 09:07:03;;;;;;;10.83;6.43;;;6.10;99.90;;;;;;5074495;28;20136;-82
2022/02/04 09:09:46;;;;;;;12.03;6.87;;;6.10;99.90;;;;;;5036043;28;20049;-85
2022/02/04 09:20:40;;;;;;;9.33;6.53;;;6.10;99.90;;;;;;5033310;28;20467;-78
2022/02/04 09:23:05;;;;;;;;;;;6.10;99.90;;;;;;5054766;28;20049;-80
2022/02/04 09:25:34;;;;;;;8.13;5.43;;;6.10;99.90;;;;;;5056139;28;19950;-85
2022/02/04 09:28:01;;;;;;;12.73;6.20;;;6.10;99.90;;;;;;5057906;28;20046;-89
2022/02/04 09:30:28;;;;;;;8.27;5.03;;;6.10;99.90;;;;;;5057512;28;20045;-83
2022/02/04 09:32:54;;;;;;;12.43;5.87;;;6.10;99.90;;;;;;5058094;28;20060;-88
2022/02/04 09:35:24;;;;;;;8.80;5.03;;;6.20;99.90;;;;;;5056702;28;20052;-88
2022/02/04 09:37:51;;;;;;;9.00;5.57;;;6.10;99.90;;;;;;5059733;28;20053;-86
2022/02/04 09:40:18;;;;;;;11.00;4.73;;;6.10;99.90;;;;;;5056799;28;20049;-90
2022/02/04 09:42:46;;;;;;;12.13;6.80;;;6.20;99.90;;;;;;5064460;28;20056;-87
2022/02/04 09:45:14;;;;;;;11.03;6.23;;;6.20;99.90;;;;;;5066514;28;20049;-86
2022/02/04 09:47:49;;;;;;;6.60;4.77;;;6.20;99.90;;;;;;5056311;28;20049;-87
2022/02/04 09:50:20;;;;;;;9.17;5.70;;;6.20;99.90;;;;;;5057831;28;20492;-86
2022/02/04 10:07:19;;;;;;;9.30;5.50;;;6.20;99.90;;;;;;5058158;28;20072;-84
2022/02/04 10:12:51;;;;;;;8.73;5.67;;;6.20;99.90;;;;;;5047033;28;20051;-84
2022/02/04 10:15:25;;;;;;;9.70;5.57;;;6.20;99.90;;;;;;5056150;28;20055;-84
2022/02/04 10:18:00;;;;;;;8.70;4.90;;;6.20;99.90;;;;;;5056638;28;20079;-87
2022/02/04 10:20:28;;;;;;;8.77;4.67;;;6.30;99.90;;;;;;5054848;28;20163;-87
2022/02/04 10:22:56;;;;;;;11.83;6.00;;;6.30;99.90;;;;;;5069333;28;20060;-87
2022/02/04 10:25:30;;;;;;;8.20;5.73;;;6.30;99.90;;;;;;5054521;28;20507;-87
2022/02/04 10:27:56;;;;;;;9.57;5.60;;;6.30;99.90;;;;;;5053836;28;20047;-88
2022/02/04 10:30:22;;;;;;;9.87;5.70;;;6.30;99.90;;;;;;5053686;28;20053;-87
2022/02/04 10:32:52;;;;;;;11.90;4.53;;;6.30;99.90;;;;;;5053920;28;20124;-89
2022/02/04 10:35:20;;;;;;;8.70;5.43;;;6.30;99.90;;;;;;5054283;28;20049;-85
2022/02/04 10:38:06;;;;;;;9.40;6.00;;;6.40;99.90;;;;;;5053834;28;20049;-87
2022/02/04 10:40:43;;;;;;;12.10;5.23;;;6.30;99.90;;;;;;5054481;28;20060;-86
2022/02/04 10:43:30;;;;;;;7.90;4.63;;;6.40;99.90;;;;;;5053498;28;20067;-88
2022/02/04 10:46:04;;;;;;;9.63;5.13;;;6.40;99.90;;;;;;5053803;28;20049;-85
2022/02/04 10:56:59;;;;;;;11.23;6.10;;;6.30;99.90;;;;;;5058061;28;20155;-88
2022/02/04 11:02:37;;;;;;;11.75;6.57;;;6.40;99.90;;;;;;5054562;28;20056;-89
2022/02/04 11:05:12;;;;;;;9.65;6.03;;;6.30;99.90;;;;;;5060921;28;20079;-85
2022/02/04 11:35:28;;;;;;;9.20;5.10;;;6.70;99.90;;;;;;5056071;28;20055;-87
2022/02/04 11:43:53;;;;;;;8.17;5.07;;;7.30;99.90;;;;;;5053746;28;20044;-86
2022/02/04 11:52:43;;;;;;;8.85;5.75;;;7.20;99.90;;;;;;5054981;28;19924;-87
2022/02/04 11:55:32;;;;;;;10.15;6.30;;;7.20;99.90;;;;;;5056498;28;20052;-87
2022/02/04 11:58:00;;;;;;;10.47;6.30;;;7.20;99.90;;;;;;5054866;28;20057;-88
2022/02/04 12:00:28;;;;;;;8.87;5.97;;;7.30;99.90;;;;;;5053268;28;20049;-85
2022/02/04 12:02:55;;;;;;;10.77;6.05;;;7.30;99.90;;;;;;5052011;28;20057;-86
2022/02/04 12:05:34;;;;;;;7.90;5.13;;;7.40;99.90;;;;;;5052638;28;20076;-87
2022/02/04 12:08:26;;;;;;;7.43;4.32;;;7.50;99.90;;;;;;5054832;28;20053;-87
2022/02/04 12:10:56;;;;;;;9.27;5.90;;;7.40;99.90;;;;;;5056683;28;20140;-87
2022/02/04 12:13:26;;;;;;;7.40;4.65;;;7.40;99.90;;;;;;5061755;28;20045;-88
2022/02/04 12:16:04;;;;;;;9.40;5.47;;;7.50;99.90;;;;;;5058583;28;20053;-84
2022/02/04 12:19:06;;;;;;;9.07;6.13;;;7.60;99.90;;;;;;5057930;28;20057;-88
2022/02/04 12:21:44;;;;;;;10.90;5.72;;;7.70;99.90;;;;;;5057099;28;20117;-85
2022/02/04 12:24:30;;;;;;;9.98;6.13;;;7.60;99.90;;;;;;5069871;28;20044;-89
2022/02/04 12:27:34;;;;;;;6.72;5.20;;;7.60;99.90;;;;;;5056476;28;20048;-89
2022/02/04 12:30:33;;;;;;;9.00;5.07;;;7.70;99.90;;;;;;5055770;28;20045;-84
2022/02/04 12:33:02;;;;;;;10.23;6.55;;;7.80;99.90;;;;;;5058788;28;20041;-87
2022/02/04 12:35:29;;;;;;;7.90;5.50;;;8.00;99.90;;;;;;5063621;28;20155;-87
2022/02/04 12:37:58;;;;;;;8.75;5.55;;;8.00;99.90;;;;;;5062319;28;20510;-87
2022/02/04 12:40:27;;;;;;;5.22;4.35;;;8.10;99.90;;;;;;5061482;28;20063;-84
2022/02/04 12:42:56;;;;;;;6.88;4.72;;;8.00;99.90;;;;;;5062194;28;20053;-87
2022/02/04 12:45:22;;;;;;;6.03;4.03;;;8.00;99.90;;;;;;5068265;28;20045;-88
2022/02/04 12:47:52;;;;;;;5.55;4.15;;;8.00;99.90;;;;;;5068815;28;20049;-87
2022/02/04 12:50:27;;;;;;;7.78;4.78;;;8.00;99.90;;;;;;5070341;28;20052;-91
2022/02/04 12:52:54;;;;;;;3.75;3.40;;;7.90;99.90;;;;;;5065848;28;20051;-86
2022/02/04 12:55:23;;;;;;;10.75;3.65;;;8.00;99.90;;;;;;5066259;28;20063;-87
2022/02/04 12:58:10;;;;;;;6.07;3.50;;;8.00;99.90;;;;;;5070524;28;20096;-87
2022/02/04 13:09:48;;;;;;;3.83;3.42;;;8.00;99.90;;;;;;5075273;28;20056;-88
2022/02/04 13:12:08;;;;;;;5.03;3.47;;;8.00;99.90;;;;;;5073353;28;20041;-86
2022/02/04 13:14:37;;;;;;;4.88;3.47;;;7.90;99.90;;;;;;5072737;28;20045;-89
2022/02/04 13:17:04;;;;;;;5.40;3.63;;;7.80;99.90;;;;;;5067410;28;20045;-85
2022/02/04 13:23:10;;;;;;;6.13;3.63;;;7.80;99.90;;;;;;5117051;28;20060;-90
2022/02/04 13:25:49;;;;;;;5.00;3.10;;;7.80;99.90;;;;;;5302756;22;20099;-92
2022/02/04 13:28:18;;;;;;;5.40;3.00;;;7.90;99.90;;;;;;5100237;28;20074;-91
2022/02/04 13:30:59;;;;;;;7.25;3.53;;;7.90;99.90;;;;;;5117150;28;20040;-90
2022/02/04 13:33:27;;;;;;;6.63;3.53;;;7.90;99.90;;;;;;5110481;28;20040;-88
2022/02/04 13:36:04;;;;;;;5.20;3.20;;;7.90;99.90;;;;;;5108254;28;20464;-89
2022/02/04 13:38:42;;;;;;;2.88;2.47;;;7.90;99.90;;;;;;5099999;28;20068;-89
2022/02/04 13:41:19;;;;;;;4.35;2.65;;;8.00;99.90;;;;;;5103633;28;20044;-87
2022/02/04 13:46:38;;;;;;;5.30;3.78;;;8.00;99.90;;;;;;5096285;28;20123;-86
2022/02/04 13:49:39;;;;;;;5.35;3.88;;;8.00;99.90;;;;;;5105625;28;20044;-91
2022/02/04 13:52:12;;;;;;;4.85;2.95;;;8.00;99.90;;;;;;5102181;28;20086;-87
2022/02/04 13:57:32;;;;;;;5.95;3.63;;;8.10;99.90;;;;;;5088746;28;20053;-90
2022/02/04 14:00:07;;;;;;;6.05;3.17;;;8.10;99.90;;;;;;5106377;28;20494;-88
2022/02/04 14:02:40;;;;;;;6.18;3.20;;;8.20;99.90;;;;;;5101472;28;20060;-88
2022/02/04 14:05:08;;;;;;;5.13;3.33;;;8.20;99.90;;;;;;5108405;28;20051;-88
2022/02/04 14:07:38;;;;;;;4.70;3.45;;;8.20;99.90;;;;;;5105302;28;20071;-87
2022/02/04 14:10:24;;;;;;;4.10;2.90;;;8.10;99.90;;;;;;5102374;28;20111;-88
2022/02/04 14:13:03;;;;;;;3.72;2.85;;;8.20;99.90;;;;;;5094392;28;20052;-88
2022/02/04 14:15:31;;;;;;;4.45;1.75;;;8.20;99.90;;;;;;5095232;28;20028;-88
2022/02/04 14:18:01;;;;;;;3.92;2.70;;;8.20;99.90;;;;;;5113231;28;20055;-89
2022/02/04 14:20:27;;;;;;;4.05;2.90;;;8.30;99.90;;;;;;5113398;28;20071;-90
2022/02/04 14:22:53;;;;;;;5.47;3.67;;;8.30;99.90;;;;;;5114886;28;20047;-90
2022/02/04 14:25:21;;;;;;;5.35;3.45;;;8.20;99.90;;;;;;5113837;28;20032;-88
2022/02/04 14:27:53;;;;;;;2.78;2.55;;;8.10;99.90;;;;;;5114983;28;20086;-88
2022/02/04 14:30:24;;;;;;;4.97;2.58;;;8.10;99.90;;;;;;5115423;28;20047;-86
2022/02/04 14:32:56;;;;;;;3.67;2.80;;;8.10;99.90;;;;;;5114808;28;20080;-86
2022/02/04 14:35:31;;;;;;;4.57;3.45;;;8.10;99.90;;;;;;5114801;28;20059;-89
2022/02/04 14:54:33;;;;;;;3.38;1.73;;;8.10;99.90;;;;;;5101633;28;20059;-88
2022/02/04 15:02:43;;;;;;;25.98;15.00;;;7.90;99.90;;;;;;5078983;28;20060;-90
2022/02/04 15:05:12;;;;;;;2.85;2.65;;;7.90;99.90;;;;;;5088617;28;20067;-89
2022/02/04 15:07:40;;;;;;;2.95;2.30;;;8.00;99.90;;;;;;5092657;28;20117;-90
2022/02/04 15:10:13;;;;;;;2.15;1.58;;;7.90;99.90;;;;;;5094810;28;20080;-91
2022/02/04 15:12:40;;;;;;;2.47;2.22;;;7.90;99.90;;;;;;5100426;28;20082;-91
2022/02/04 15:15:07;;;;;;;1.48;1.38;;;7.90;99.90;;;;;;5099982;28;20056;-91
2022/02/04 15:17:35;;;;;;;2.95;1.75;;;7.80;99.90;;;;;;5100344;28;20067;-91
2022/02/04 15:20:01;;;;;;;2.00;1.60;;;7.90;99.90;;;;;;5097695;28;20056;-91
2022/02/04 15:22:29;;;;;;;2.63;1.48;;;7.90;99.90;;;;;;5105542;28;20056;-90
2022/02/04 15:25:04;;;;;;;2.22;1.42;;;7.90;99.90;;;;;;5097854;28;20171;-90
2022/02/04 15:27:34;;;;;;;2.47;1.83;;;7.80;99.90;;;;;;5104352;28;20045;-91
2022/02/04 15:30:03;;;;;;;1.45;1.30;;;7.80;99.90;;;;;;5104511;28;20120;-91
2022/02/04 15:32:36;;;;;;;1.70;1.60;;;7.80;99.90;;;;;;5099707;28;20538;-91
2022/02/04 15:35:07;;;;;;;1.55;0.82;;;7.80;99.90;;;;;;5104599;28;20059;-90
2022/02/04 15:37:34;;;;;;;1.75;1.48;;;7.80;99.90;;;;;;5106110;28;20107;-90
2022/02/04 15:40:00;;;;;;;1.58;1.30;;;7.80;99.90;;;;;;5105794;28;20414;-90
2022/02/04 15:42:33;;;;;;;1.48;1.38;;;7.70;99.90;;;;;;5098252;28;20048;-88
2022/02/04 15:45:16;;;;;;;1.00;0.90;;;7.70;99.90;;;;;;5107805;28;20052;-89
2022/02/04 15:47:56;;;;;;;2.13;1.42;;;7.70;99.90;;;;;;5084325;28;20087;-92
2022/02/04 15:50:32;;;;;;;1.48;1.23;;;7.70;99.90;;;;;;5083981;28;20048;-86
2022/02/04 15:53:17;;;;;;;1.40;1.30;;;7.70;99.90;;;;;;5071979;28;20040;-86
2022/02/04 16:01:54;;;;;;;1.13;0.87;;;7.70;99.90;;;;;;5098417;28;20180;-88
2022/02/04 16:04:25;;;;;;;1.40;1.00;;;7.70;99.90;;;;;;5101689;28;20051;-87
2022/02/04 16:06:54;;;;;;;2.05;1.70;;;7.70;99.90;;;;;;5103367;28;20056;-88
2022/02/04 16:09:22;;;;;;;1.33;1.20;;;7.70;99.90;;;;;;5104955;28;20076;-91
2022/02/04 16:12:19;;;;;;;1.05;0.90;;;7.70;99.90;;;;;;5102418;28;20101;-90
2022/02/04 16:14:52;;;;;;;1.52;1.00;;;7.70;99.90;;;;;;5097614;28;20063;-89
2022/02/04 16:20:37;;;;;;;0.90;0.90;;;7.70;99.90;;;;;;5095237;28;20059;-92
2022/02/04 16:23:09;;;;;;;1.33;1.17;;;7.70;99.90;;;;;;5098532;28;20956;-91
2022/02/04 16:25:54;;;;;;;1.60;1.27;;;7.70;99.90;;;;;;5094527;28;20044;-86
2022/02/04 16:31:18;;;;;;;1.17;1.08;;;7.70;99.90;;;;;;5061535;28;20054;-87
2022/02/04 16:33:53;;;;;;;2.53;1.60;;;7.70;99.90;;;;;;5096862;28;20056;-91
2022/02/04 17:14:02;;;;;;;0.85;0.73;;;7.70;99.90;;;;;;5085124;28;20078;-90
2022/02/04 17:19:11;;;;;;;1.17;0.88;;;7.60;99.90;;;;;;5083425;28;20070;-90
2022/02/04 17:22:10;;;;;;;0.90;0.90;;;7.60;99.90;;;;;;5086851;28;20112;-88
2022/02/04 17:24:40;;;;;;;0.85;0.77;;;7.60;99.90;;;;;;5084330;28;20723;-89
2022/02/04 17:29:59;;;;;;;0.68;0.68;;;7.60;99.90;;;;;;5060415;28;20095;-91
2022/02/04 17:32:29;;;;;;;1.35;1.08;;;7.60;99.90;;;;;;5063290;28;20049;-92
2022/02/04 17:34:57;;;;;;;1.27;1.17;;;7.60;99.90;;;;;;5042710;28;20087;-90
2022/02/04 17:37:25;;;;;;;1.48;1.08;;;7.60;99.90;;;;;;5061209;28;20065;-87
2022/02/04 17:39:54;;;;;;;1.08;0.98;;;7.60;99.90;;;;;;5058595;28;20061;-88
2022/02/04 17:42:24;;;;;;;1.90;1.27;;;7.60;99.90;;;;;;5060460;28;20045;-90
2022/02/04 17:44:51;;;;;;;1.25;1.05;;;7.60;99.90;;;;;;5058273;28;20072;-88
2022/02/04 17:47:19;;;;;;;5.88;3.55;;;7.50;99.90;;;;;;5055710;28;20495;-80
2022/02/04 17:49:53;;;;;;;9.15;5.28;;;7.60;99.90;;;;;;5055053;28;20152;-87
2022/02/04 17:52:22;;;;;;;1.05;1.05;;;7.60;99.90;;;;;;5056657;28;20041;-88
2022/02/04 17:54:56;;;;;;;1.05;1.05;;;7.60;99.90;;;;;;5054052;28;20049;-89
2022/02/04 17:57:37;;;;;;;1.30;1.30;;;7.50;99.90;;;;;;5056056;28;20057;-90
2022/02/04 18:00:56;;;;;;;0.63;0.63;;;7.50;99.90;;;;;;5060703;28;20475;-89
2022/02/04 18:05:14;;;;;;;1.33;1.23;;;7.50;99.90;;;;;;5040845;28;20062;-88
2022/02/04 18:09:11;;;;;;;1.38;1.13;;;7.50;99.90;;;;;;5041844;28;20111;-89
2022/02/04 18:11:38;;;;;;;1.00;0.60;;;7.50;99.90;;;;;;5036794;28;20050;-87
2022/02/04 18:14:33;;;;;;;0.60;0.60;;;7.40;99.90;;;;;;5038655;28;20376;-89
2022/02/04 18:17:03;;;;;;;1.73;1.00;;;7.40;99.90;;;;;;5037494;28;20073;-89
2022/02/04 18:19:59;;;;;;;1.20;0.95;;;7.40;99.90;;;;;;5038062;28;20067;-88
2022/02/04 18:22:28;;;;;;;1.15;1.05;;;7.50;99.90;;;;;;5040325;28;20144;-88
2022/02/04 18:24:57;;;;;;;1.05;0.75;;;7.40;99.90;;;;;;5039302;28;20049;-90
2022/02/04 18:27:25;;;;;;;0.97;0.90;;;7.40;99.90;;;;;;5039429;28;20121;-89
2022/02/04 18:29:54;;;;;;;1.40;1.15;;;7.40;99.90;;;;;;5038241;28;20037;-88
2022/02/04 18:32:23;;;;;;;0.73;0.73;;;7.40;99.90;;;;;;5048212;28;20129;-88